sensor_id;sensor_type;location;lat;lon;timestamp;P1;durP1;ratioP1;P2;durP2;ratioP2
29854;SDS011;16733;48.738;9.106;2022-12-10T00:00:32;48.28;;;21.10;;
29854;SDS011;16733;48.738;9.106;2022-12-10T00:02:58;42.40;;;16.92;;
29854;SDS011;16733;48.738;9.106;2022-12-10T00:05:24;33.83;;;14.35;;
29854;SDS011;16733;48.738;9.106;2022-12-10T00:07:49;33.30;;;14.68;;
29854;SDS011;16733;48.738;9.106;2022-12-10T00:10:15;31.75;;;15.60;;
29854;SDS011;16733;48.738;9.106;2022-12-10T00:12:40;34.78;;;14.65;;
29854;SDS011;16733;48.738;9.106;2022-12-10T00:15:06;27.17;;;14.38;;
29854;SDS011;16733;48.738;9.106;2022-12-10T00:17:32;31.48;;;13.95;;
29854;SDS011;16733;48.738;9.106;2022-12-10T00:19:58;37.50;;;16.35;;
29854;SDS011;16733;48.738;9.106;2022-12-10T00:22:23;33.38;;;15.68;;
29854;SDS011;16733;48.738;9.106;2022-12-10T00:24:49;33.60;;;15.60;;
29854;SDS011;16733;48.738;9.106;2022-12-10T00:27:14;32.50;;;15.02;;
29854;SDS011;16733;48.738;9.106;2022-12-10T00:29:40;35.78;;;17.05;;
29854;SDS011;16733;48.738;9.106;2022-12-10T00:32:05;35.72;;;16.35;;
29854;SDS011;16733;48.738;9.106;2022-12-10T00:34:31;42.13;;;18.50;;
29854;SDS011;16733;48.738;9.106;2022-12-10T00:36:57;25.75;;;13.27;;
29854;SDS011;16733;48.738;9.106;2022-12-10T00:39:22;33.05;;;14.27;;
29854;SDS011;16733;48.738;9.106;2022-12-10T00:41:48;33.88;;;14.52;;
29854;SDS011;16733;48.738;9.106;2022-12-10T00:44:14;35.17;;;14.30;;
29854;SDS011;16733;48.738;9.106;2022-12-10T00:46:40;32.60;;;14.52;;
29854;SDS011;16733;48.738;9.106;2022-12-10T00:49:07;31.95;;;14.73;;
29854;SDS011;16733;48.738;9.106;2022-12-10T00:51:32;29.77;;;14.85;;
29854;SDS011;16733;48.738;9.106;2022-12-10T00:53:58;28.58;;;12.15;;
29854;SDS011;16733;48.738;9.106;2022-12-10T00:56:26;30.23;;;12.70;;
29854;SDS011;16733;48.738;9.106;2022-12-10T00:58:57;35.80;;;15.43;;
29854;SDS011;16733;48.738;9.106;2022-12-10T01:01:31;42.03;;;14.95;;
29854;SDS011;16733;48.738;9.106;2022-12-10T01:04:06;31.52;;;14.38;;
29854;SDS011;16733;48.738;9.106;2022-12-10T01:06:36;31.77;;;15.13;;
29854;SDS011;16733;48.738;9.106;2022-12-10T01:09:06;32.05;;;13.85;;
29854;SDS011;16733;48.738;9.106;2022-12-10T01:11:35;30.83;;;12.40;;
29854;SDS011;16733;48.738;9.106;2022-12-10T01:14:05;35.88;;;14.50;;
29854;SDS011;16733;48.738;9.106;2022-12-10T01:16:32;30.60;;;13.15;;
29854;SDS011;16733;48.738;9.106;2022-12-10T01:18:58;26.48;;;13.18;;
29854;SDS011;16733;48.738;9.106;2022-12-10T01:21:25;35.95;;;14.50;;
29854;SDS011;16733;48.738;9.106;2022-12-10T01:23:52;34.40;;;14.75;;
29854;SDS011;16733;48.738;9.106;2022-12-10T01:26:22;36.70;;;14.77;;
29854;SDS011;16733;48.738;9.106;2022-12-10T01:28:49;30.33;;;13.95;;
29854;SDS011;16733;48.738;9.106;2022-12-10T01:31:16;28.02;;;13.25;;
29854;SDS011;16733;48.738;9.106;2022-12-10T01:33:44;31.02;;;13.00;;
29854;SDS011;16733;48.738;9.106;2022-12-10T01:36:14;29.23;;;13.40;;
29854;SDS011;16733;48.738;9.106;2022-12-10T01:38:48;31.50;;;12.60;;
29854;SDS011;16733;48.738;9.106;2022-12-10T01:41:19;30.45;;;13.52;;
29854;SDS011;16733;48.738;9.106;2022-12-10T01:44:55;30.45;;;13.27;;
29854;SDS011;16733;48.738;9.106;2022-12-10T01:46:51;33.08;;;14.30;;
29854;SDS011;16733;48.738;9.106;2022-12-10T01:49:20;32.33;;;13.07;;
29854;SDS011;16733;48.738;9.106;2022-12-10T01:51:48;34.90;;;16.13;;
29854;SDS011;16733;48.738;9.106;2022-12-10T01:54:23;28.08;;;14.13;;
29854;SDS011;16733;48.738;9.106;2022-12-10T01:56:58;32.17;;;14.57;;
29854;SDS011;16733;48.738;9.106;2022-12-10T01:59:29;31.83;;;15.02;;
29854;SDS011;16733;48.738;9.106;2022-12-10T02:02:04;41.35;;;18.02;;
29854;SDS011;16733;48.738;9.106;2022-12-10T02:04:49;39.80;;;13.75;;
29854;SDS011;16733;48.738;9.106;2022-12-10T02:07:22;31.85;;;14.63;;
29854;SDS011;16733;48.738;9.106;2022-12-10T02:13:20;29.60;;;12.85;;
29854;SDS011;16733;48.738;9.106;2022-12-10T02:16:02;35.28;;;14.45;;
29854;SDS011;16733;48.738;9.106;2022-12-10T02:21:17;30.52;;;13.35;;
29854;SDS011;16733;48.738;9.106;2022-12-10T02:23:52;32.13;;;13.82;;
29854;SDS011;16733;48.738;9.106;2022-12-10T02:26:37;29.00;;;13.20;;
29854;SDS011;16733;48.738;9.106;2022-12-10T02:29:17;29.25;;;12.05;;
29854;SDS011;16733;48.738;9.106;2022-12-10T02:31:46;24.15;;;11.95;;
29854;SDS011;16733;48.738;9.106;2022-12-10T02:34:18;29.48;;;12.57;;
29854;SDS011;16733;48.738;9.106;2022-12-10T02:36:46;30.50;;;13.57;;
29854;SDS011;16733;48.738;9.106;2022-12-10T02:39:18;22.80;;;11.77;;
29854;SDS011;16733;48.738;9.106;2022-12-10T02:41:51;29.02;;;13.45;;
29854;SDS011;16733;48.738;9.106;2022-12-10T02:44:19;33.25;;;14.32;;
29854;SDS011;16733;48.738;9.106;2022-12-10T02:46:46;27.50;;;13.00;;
29854;SDS011;16733;48.738;9.106;2022-12-10T02:49:14;21.55;;;11.13;;
29854;SDS011;16733;48.738;9.106;2022-12-10T02:51:42;26.70;;;12.65;;
29854;SDS011;16733;48.738;9.106;2022-12-10T02:54:33;37.33;;;15.85;;
29854;SDS011;16733;48.738;9.106;2022-12-10T02:57:06;28.98;;;11.45;;
29854;SDS011;16733;48.738;9.106;2022-12-10T02:59:42;26.75;;;12.02;;
29854;SDS011;16733;48.738;9.106;2022-12-10T03:02:46;31.40;;;13.98;;
29854;SDS011;16733;48.738;9.106;2022-12-10T03:05:35;27.50;;;12.50;;
29854;SDS011;16733;48.738;9.106;2022-12-10T03:08:15;25.55;;;12.05;;
29854;SDS011;16733;48.738;9.106;2022-12-10T03:13:23;23.45;;;11.57;;
29854;SDS011;16733;48.738;9.106;2022-12-10T03:16:13;29.05;;;12.50;;
29854;SDS011;16733;48.738;9.106;2022-12-10T03:18:41;27.10;;;12.85;;
29854;SDS011;16733;48.738;9.106;2022-12-10T03:21:08;31.27;;;14.57;;
29854;SDS011;16733;48.738;9.106;2022-12-10T03:23:35;28.90;;;13.05;;
29854;SDS011;16733;48.738;9.106;2022-12-10T03:26:02;24.60;;;12.63;;
29854;SDS011;16733;48.738;9.106;2022-12-10T03:28:31;30.85;;;12.77;;
29854;SDS011;16733;48.738;9.106;2022-12-10T03:31:02;27.13;;;11.35;;
29854;SDS011;16733;48.738;9.106;2022-12-10T03:33:29;31.98;;;13.85;;
29854;SDS011;16733;48.738;9.106;2022-12-10T03:35:56;28.77;;;13.13;;
29854;SDS011;16733;48.738;9.106;2022-12-10T03:38:22;28.00;;;12.75;;
29854;SDS011;16733;48.738;9.106;2022-12-10T03:40:48;26.10;;;12.85;;
29854;SDS011;16733;48.738;9.106;2022-12-10T03:43:13;28.58;;;13.70;;
29854;SDS011;16733;48.738;9.106;2022-12-10T03:45:40;28.02;;;12.10;;
29854;SDS011;16733;48.738;9.106;2022-12-10T03:48:06;25.13;;;12.65;;
29854;SDS011;16733;48.738;9.106;2022-12-10T03:50:31;32.92;;;13.45;;
29854;SDS011;16733;48.738;9.106;2022-12-10T03:52:57;30.77;;;12.90;;
29854;SDS011;16733;48.738;9.106;2022-12-10T03:55:23;25.38;;;11.85;;
29854;SDS011;16733;48.738;9.106;2022-12-10T03:57:48;28.20;;;13.07;;
29854;SDS011;16733;48.738;9.106;2022-12-10T04:00:14;32.15;;;13.18;;
29854;SDS011;16733;48.738;9.106;2022-12-10T04:02:40;26.63;;;13.07;;
29854;SDS011;16733;48.738;9.106;2022-12-10T04:05:06;27.00;;;12.50;;
29854;SDS011;16733;48.738;9.106;2022-12-10T04:07:32;24.58;;;11.55;;
29854;SDS011;16733;48.738;9.106;2022-12-10T04:09:59;27.10;;;12.65;;
29854;SDS011;16733;48.738;9.106;2022-12-10T04:12:24;25.85;;;11.98;;
29854;SDS011;16733;48.738;9.106;2022-12-10T04:14:50;28.20;;;11.80;;
29854;SDS011;16733;48.738;9.106;2022-12-10T04:17:34;23.88;;;11.68;;
29854;SDS011;16733;48.738;9.106;2022-12-10T04:19:59;30.20;;;11.95;;
29854;SDS011;16733;48.738;9.106;2022-12-10T04:22:25;26.33;;;12.38;;
29854;SDS011;16733;48.738;9.106;2022-12-10T04:25:12;26.08;;;12.40;;
29854;SDS011;16733;48.738;9.106;2022-12-10T04:27:56;33.60;;;13.35;;
29854;SDS011;16733;48.738;9.106;2022-12-10T04:30:22;27.90;;;12.63;;
29854;SDS011;16733;48.738;9.106;2022-12-10T04:32:48;31.75;;;11.93;;
29854;SDS011;16733;48.738;9.106;2022-12-10T04:35:13;28.90;;;13.20;;
29854;SDS011;16733;48.738;9.106;2022-12-10T04:37:39;25.58;;;12.18;;
29854;SDS011;16733;48.738;9.106;2022-12-10T04:40:05;22.98;;;11.13;;
29854;SDS011;16733;48.738;9.106;2022-12-10T04:42:31;27.92;;;13.20;;
29854;SDS011;16733;48.738;9.106;2022-12-10T04:44:57;25.50;;;12.75;;
29854;SDS011;16733;48.738;9.106;2022-12-10T04:47:23;26.35;;;12.48;;
29854;SDS011;16733;48.738;9.106;2022-12-10T04:49:48;27.15;;;12.70;;
29854;SDS011;16733;48.738;9.106;2022-12-10T04:52:15;26.02;;;11.95;;
29854;SDS011;16733;48.738;9.106;2022-12-10T04:54:41;24.17;;;10.82;;
29854;SDS011;16733;48.738;9.106;2022-12-10T04:57:08;22.88;;;11.73;;
29854;SDS011;16733;48.738;9.106;2022-12-10T04:59:37;27.58;;;13.00;;
29854;SDS011;16733;48.738;9.106;2022-12-10T05:02:03;27.95;;;12.98;;
29854;SDS011;16733;48.738;9.106;2022-12-10T05:04:29;26.92;;;11.95;;
29854;SDS011;16733;48.738;9.106;2022-12-10T05:06:55;27.13;;;11.30;;
29854;SDS011;16733;48.738;9.106;2022-12-10T05:09:20;28.25;;;12.75;;
29854;SDS011;16733;48.738;9.106;2022-12-10T05:11:47;26.10;;;12.10;;
29854;SDS011;16733;48.738;9.106;2022-12-10T05:14:13;26.10;;;12.45;;
29854;SDS011;16733;48.738;9.106;2022-12-10T05:16:40;27.13;;;12.30;;
29854;SDS011;16733;48.738;9.106;2022-12-10T05:19:06;29.20;;;13.45;;
29854;SDS011;16733;48.738;9.106;2022-12-10T05:21:32;28.02;;;12.80;;
29854;SDS011;16733;48.738;9.106;2022-12-10T05:24:17;27.85;;;12.38;;
29854;SDS011;16733;48.738;9.106;2022-12-10T05:26:43;30.17;;;13.05;;
29854;SDS011;16733;48.738;9.106;2022-12-10T05:29:08;29.25;;;12.80;;
29854;SDS011;16733;48.738;9.106;2022-12-10T05:31:34;25.88;;;12.45;;
29854;SDS011;16733;48.738;9.106;2022-12-10T05:34:00;29.10;;;13.32;;
29854;SDS011;16733;48.738;9.106;2022-12-10T05:36:27;30.42;;;13.10;;
29854;SDS011;16733;48.738;9.106;2022-12-10T05:38:54;28.05;;;12.32;;
29854;SDS011;16733;48.738;9.106;2022-12-10T05:41:22;26.25;;;12.68;;
29854;SDS011;16733;48.738;9.106;2022-12-10T05:43:49;29.80;;;12.48;;
29854;SDS011;16733;48.738;9.106;2022-12-10T05:46:19;25.58;;;12.65;;
29854;SDS011;16733;48.738;9.106;2022-12-10T05:48:48;30.50;;;12.27;;
29854;SDS011;16733;48.738;9.106;2022-12-10T05:51:15;27.13;;;11.48;;
29854;SDS011;16733;48.738;9.106;2022-12-10T05:53:43;25.23;;;12.05;;
29854;SDS011;16733;48.738;9.106;2022-12-10T05:56:10;32.35;;;12.80;;
29854;SDS011;16733;48.738;9.106;2022-12-10T05:58:38;26.27;;;11.63;;
29854;SDS011;16733;48.738;9.106;2022-12-10T06:01:08;32.13;;;13.90;;
29854;SDS011;16733;48.738;9.106;2022-12-10T06:03:36;27.58;;;13.25;;
29854;SDS011;16733;48.738;9.106;2022-12-10T06:06:02;28.65;;;12.32;;
29854;SDS011;16733;48.738;9.106;2022-12-10T06:08:29;31.23;;;13.70;;
29854;SDS011;16733;48.738;9.106;2022-12-10T06:10:54;29.98;;;13.77;;
29854;SDS011;16733;48.738;9.106;2022-12-10T06:13:22;27.70;;;12.32;;
29854;SDS011;16733;48.738;9.106;2022-12-10T06:15:48;25.95;;;12.23;;
29854;SDS011;16733;48.738;9.106;2022-12-10T06:18:14;27.38;;;12.10;;
29854;SDS011;16733;48.738;9.106;2022-12-10T06:20:39;29.10;;;13.95;;
29854;SDS011;16733;48.738;9.106;2022-12-10T06:23:05;29.05;;;13.38;;
29854;SDS011;16733;48.738;9.106;2022-12-10T06:25:31;30.30;;;13.80;;
29854;SDS011;16733;48.738;9.106;2022-12-10T06:27:57;29.52;;;12.73;;
29854;SDS011;16733;48.738;9.106;2022-12-10T06:30:23;27.85;;;13.05;;
29854;SDS011;16733;48.738;9.106;2022-12-10T06:32:48;26.88;;;12.27;;
29854;SDS011;16733;48.738;9.106;2022-12-10T06:35:14;27.05;;;12.30;;
29854;SDS011;16733;48.738;9.106;2022-12-10T06:37:40;28.13;;;12.95;;
29854;SDS011;16733;48.738;9.106;2022-12-10T06:40:05;30.67;;;12.73;;
29854;SDS011;16733;48.738;9.106;2022-12-10T06:42:31;28.70;;;12.40;;
29854;SDS011;16733;48.738;9.106;2022-12-10T06:44:57;24.33;;;11.85;;
29854;SDS011;16733;48.738;9.106;2022-12-10T06:47:23;30.63;;;11.55;;
29854;SDS011;16733;48.738;9.106;2022-12-10T06:49:48;29.55;;;13.15;;
29854;SDS011;16733;48.738;9.106;2022-12-10T06:52:14;25.48;;;12.02;;
29854;SDS011;16733;48.738;9.106;2022-12-10T06:54:40;31.10;;;13.70;;
29854;SDS011;16733;48.738;9.106;2022-12-10T06:57:05;31.17;;;14.43;;
29854;SDS011;16733;48.738;9.106;2022-12-10T06:59:31;33.88;;;15.57;;
29854;SDS011;16733;48.738;9.106;2022-12-10T07:01:57;32.00;;;14.30;;
29854;SDS011;16733;48.738;9.106;2022-12-10T07:04:22;26.38;;;12.40;;
29854;SDS011;16733;48.738;9.106;2022-12-10T07:06:48;29.55;;;13.35;;
29854;SDS011;16733;48.738;9.106;2022-12-10T07:09:13;32.35;;;13.88;;
29854;SDS011;16733;48.738;9.106;2022-12-10T07:11:39;26.35;;;12.52;;
29854;SDS011;16733;48.738;9.106;2022-12-10T07:14:05;27.77;;;12.27;;
29854;SDS011;16733;48.738;9.106;2022-12-10T07:16:31;28.10;;;13.68;;
29854;SDS011;16733;48.738;9.106;2022-12-10T07:18:58;28.83;;;13.15;;
29854;SDS011;16733;48.738;9.106;2022-12-10T07:23:56;28.38;;;12.32;;
29854;SDS011;16733;48.738;9.106;2022-12-10T07:26:24;25.50;;;11.25;;
29854;SDS011;16733;48.738;9.106;2022-12-10T07:28:52;29.23;;;12.85;;
29854;SDS011;16733;48.738;9.106;2022-12-10T07:31:17;29.02;;;13.18;;
29854;SDS011;16733;48.738;9.106;2022-12-10T07:33:43;30.20;;;12.45;;
29854;SDS011;16733;48.738;9.106;2022-12-10T07:36:10;28.63;;;13.23;;
29854;SDS011;16733;48.738;9.106;2022-12-10T07:38:36;28.13;;;12.82;;
29854;SDS011;16733;48.738;9.106;2022-12-10T07:41:03;30.13;;;13.10;;
29854;SDS011;16733;48.738;9.106;2022-12-10T07:43:30;27.50;;;12.23;;
29854;SDS011;16733;48.738;9.106;2022-12-10T07:46:02;32.13;;;12.85;;
29854;SDS011;16733;48.738;9.106;2022-12-10T07:48:33;30.00;;;14.20;;
29854;SDS011;16733;48.738;9.106;2022-12-10T07:50:59;28.70;;;13.82;;
29854;SDS011;16733;48.738;9.106;2022-12-10T07:53:25;27.02;;;12.43;;
29854;SDS011;16733;48.738;9.106;2022-12-10T07:55:50;28.00;;;13.18;;
29854;SDS011;16733;48.738;9.106;2022-12-10T07:58:16;24.58;;;11.98;;
29854;SDS011;16733;48.738;9.106;2022-12-10T08:00:41;28.33;;;11.23;;
29854;SDS011;16733;48.738;9.106;2022-12-10T08:03:07;28.40;;;12.90;;
29854;SDS011;16733;48.738;9.106;2022-12-10T08:05:33;30.15;;;12.63;;
29854;SDS011;16733;48.738;9.106;2022-12-10T08:07:58;30.42;;;13.63;;
29854;SDS011;16733;48.738;9.106;2022-12-10T08:10:24;30.45;;;13.30;;
29854;SDS011;16733;48.738;9.106;2022-12-10T08:12:49;31.52;;;12.80;;
29854;SDS011;16733;48.738;9.106;2022-12-10T08:15:15;32.38;;;13.50;;
29854;SDS011;16733;48.738;9.106;2022-12-10T08:17:44;27.75;;;13.05;;
29854;SDS011;16733;48.738;9.106;2022-12-10T08:20:09;27.42;;;12.85;;
29854;SDS011;16733;48.738;9.106;2022-12-10T08:22:35;28.83;;;12.98;;
29854;SDS011;16733;48.738;9.106;2022-12-10T08:25:01;25.45;;;11.73;;
29854;SDS011;16733;48.738;9.106;2022-12-10T08:27:27;30.08;;;12.75;;
29854;SDS011;16733;48.738;9.106;2022-12-10T08:29:56;29.23;;;13.68;;
29854;SDS011;16733;48.738;9.106;2022-12-10T08:32:21;25.17;;;12.10;;
29854;SDS011;16733;48.738;9.106;2022-12-10T08:34:47;27.05;;;13.00;;
29854;SDS011;16733;48.738;9.106;2022-12-10T08:37:13;26.20;;;12.75;;
29854;SDS011;16733;48.738;9.106;2022-12-10T08:39:39;27.58;;;13.82;;
29854;SDS011;16733;48.738;9.106;2022-12-10T08:42:05;28.27;;;12.57;;
29854;SDS011;16733;48.738;9.106;2022-12-10T08:44:30;27.45;;;11.73;;
29854;SDS011;16733;48.738;9.106;2022-12-10T08:46:56;30.17;;;13.07;;
29854;SDS011;16733;48.738;9.106;2022-12-10T08:49:22;29.23;;;12.55;;
29854;SDS011;16733;48.738;9.106;2022-12-10T08:51:47;27.58;;;13.63;;
29854;SDS011;16733;48.738;9.106;2022-12-10T08:54:13;30.85;;;13.13;;
29854;SDS011;16733;48.738;9.106;2022-12-10T08:56:38;29.50;;;14.30;;
29854;SDS011;16733;48.738;9.106;2022-12-10T08:59:04;29.60;;;13.57;;
29854;SDS011;16733;48.738;9.106;2022-12-10T09:01:30;31.17;;;13.25;;
29854;SDS011;16733;48.738;9.106;2022-12-10T09:03:56;30.85;;;13.32;;
29854;SDS011;16733;48.738;9.106;2022-12-10T09:06:22;35.40;;;15.43;;
29854;SDS011;16733;48.738;9.106;2022-12-10T09:08:51;31.13;;;13.65;;
29854;SDS011;16733;48.738;9.106;2022-12-10T09:11:19;26.15;;;13.23;;
29854;SDS011;16733;48.738;9.106;2022-12-10T09:13:47;27.35;;;13.50;;
29854;SDS011;16733;48.738;9.106;2022-12-10T09:16:13;25.10;;;12.30;;
29854;SDS011;16733;48.738;9.106;2022-12-10T09:18:39;24.13;;;12.05;;
29854;SDS011;16733;48.738;9.106;2022-12-10T09:21:05;27.60;;;12.32;;
29854;SDS011;16733;48.738;9.106;2022-12-10T09:23:32;28.13;;;12.80;;
29854;SDS011;16733;48.738;9.106;2022-12-10T09:25:58;24.73;;;12.05;;
29854;SDS011;16733;48.738;9.106;2022-12-10T09:28:23;26.75;;;13.73;;
29854;SDS011;16733;48.738;9.106;2022-12-10T09:30:59;28.65;;;11.88;;
29854;SDS011;16733;48.738;9.106;2022-12-10T09:33:26;30.42;;;12.98;;
29854;SDS011;16733;48.738;9.106;2022-12-10T09:35:52;26.88;;;12.98;;
29854;SDS011;16733;48.738;9.106;2022-12-10T09:38:18;26.88;;;13.75;;
29854;SDS011;16733;48.738;9.106;2022-12-10T09:40:50;26.73;;;13.40;;
29854;SDS011;16733;48.738;9.106;2022-12-10T09:46:02;31.52;;;14.20;;
29854;SDS011;16733;48.738;9.106;2022-12-10T09:48:46;30.98;;;13.23;;
29854;SDS011;16733;48.738;9.106;2022-12-10T09:53:53;31.98;;;13.68;;
29854;SDS011;16733;48.738;9.106;2022-12-10T09:56:34;33.53;;;13.57;;
29854;SDS011;16733;48.738;9.106;2022-12-10T10:02:24;34.35;;;13.15;;
29854;SDS011;16733;48.738;9.106;2022-12-10T10:07:41;24.58;;;12.32;;
29854;SDS011;16733;48.738;9.106;2022-12-10T10:10:16;24.90;;;12.23;;
29854;SDS011;16733;48.738;9.106;2022-12-10T10:15:38;30.15;;;13.75;;
29854;SDS011;16733;48.738;9.106;2022-12-10T10:18:52;29.50;;;12.38;;
29854;SDS011;16733;48.738;9.106;2022-12-10T10:21:07;30.52;;;13.48;;
29854;SDS011;16733;48.738;9.106;2022-12-10T10:23:42;30.90;;;13.38;;
29854;SDS011;16733;48.738;9.106;2022-12-10T10:26:10;27.55;;;12.82;;
29854;SDS011;16733;48.738;9.106;2022-12-10T10:28:35;30.45;;;13.98;;
29854;SDS011;16733;48.738;9.106;2022-12-10T10:31:07;33.67;;;13.32;;
29854;SDS011;16733;48.738;9.106;2022-12-10T10:33:53;28.55;;;12.20;;
29854;SDS011;16733;48.738;9.106;2022-12-10T10:36:25;28.63;;;12.93;;
29854;SDS011;16733;48.738;9.106;2022-12-10T10:38:53;24.00;;;11.77;;
29854;SDS011;16733;48.738;9.106;2022-12-10T10:41:18;32.60;;;14.23;;
29854;SDS011;16733;48.738;9.106;2022-12-10T10:43:44;30.30;;;12.85;;
29854;SDS011;16733;48.738;9.106;2022-12-10T10:46:13;27.42;;;12.05;;
29854;SDS011;16733;48.738;9.106;2022-12-10T10:48:45;25.48;;;11.93;;
29854;SDS011;16733;48.738;9.106;2022-12-10T10:53:47;26.38;;;12.27;;
29854;SDS011;16733;48.738;9.106;2022-12-10T10:56:17;26.27;;;11.73;;
29854;SDS011;16733;48.738;9.106;2022-12-10T11:04:15;24.25;;;12.65;;
29854;SDS011;16733;48.738;9.106;2022-12-10T11:06:43;25.23;;;12.20;;
29854;SDS011;16733;48.738;9.106;2022-12-10T11:09:14;29.00;;;12.93;;
29854;SDS011;16733;48.738;9.106;2022-12-10T11:11:49;28.80;;;12.88;;
29854;SDS011;16733;48.738;9.106;2022-12-10T11:19:35;24.10;;;11.52;;
29854;SDS011;16733;48.738;9.106;2022-12-10T11:22:16;25.25;;;12.95;;
29854;SDS011;16733;48.738;9.106;2022-12-10T11:24:46;28.90;;;12.43;;
29854;SDS011;16733;48.738;9.106;2022-12-10T11:27:16;25.50;;;11.55;;
29854;SDS011;16733;48.738;9.106;2022-12-10T11:32:56;24.17;;;11.55;;
29854;SDS011;16733;48.738;9.106;2022-12-10T11:51:23;22.85;;;10.23;;
29854;SDS011;16733;48.738;9.106;2022-12-10T11:54:05;26.23;;;13.00;;
29854;SDS011;16733;48.738;9.106;2022-12-10T11:56:40;28.08;;;12.55;;
29854;SDS011;16733;48.738;9.106;2022-12-10T12:01:56;29.08;;;12.93;;
29854;SDS011;16733;48.738;9.106;2022-12-10T12:07:31;26.25;;;11.77;;
29854;SDS011;16733;48.738;9.106;2022-12-10T12:10:45;25.63;;;12.00;;
29854;SDS011;16733;48.738;9.106;2022-12-10T12:13:23;20.83;;;11.57;;
29854;SDS011;16733;48.738;9.106;2022-12-10T12:18:31;24.52;;;11.85;;
29854;SDS011;16733;48.738;9.106;2022-12-10T12:21:01;27.15;;;11.70;;
29854;SDS011;16733;48.738;9.106;2022-12-10T12:26:16;25.85;;;12.60;;
29854;SDS011;16733;48.738;9.106;2022-12-10T12:31:34;24.65;;;12.05;;
29854;SDS011;16733;48.738;9.106;2022-12-10T12:34:05;24.75;;;11.65;;
29854;SDS011;16733;48.738;9.106;2022-12-10T12:36:49;22.08;;;10.32;;
29854;SDS011;16733;48.738;9.106;2022-12-10T12:44:15;22.67;;;11.02;;
29854;SDS011;16733;48.738;9.106;2022-12-10T12:46:54;21.55;;;10.18;;
29854;SDS011;16733;48.738;9.106;2022-12-10T12:49:30;18.05;;;9.15;;
29854;SDS011;16733;48.738;9.106;2022-12-10T12:54:57;21.83;;;10.25;;
29854;SDS011;16733;48.738;9.106;2022-12-10T12:57:30;20.38;;;9.55;;
29854;SDS011;16733;48.738;9.106;2022-12-10T13:00:03;20.63;;;9.57;;
29854;SDS011;16733;48.738;9.106;2022-12-10T13:05:50;21.00;;;10.57;;
29854;SDS011;16733;48.738;9.106;2022-12-10T13:11:00;21.83;;;10.40;;
29854;SDS011;16733;48.738;9.106;2022-12-10T13:32:23;22.77;;;11.10;;
29854;SDS011;16733;48.738;9.106;2022-12-10T13:37:33;19.05;;;9.90;;
29854;SDS011;16733;48.738;9.106;2022-12-10T13:48:55;22.60;;;10.70;;
29854;SDS011;16733;48.738;9.106;2022-12-10T13:51:25;20.88;;;10.73;;
29854;SDS011;16733;48.738;9.106;2022-12-10T14:02:47;21.00;;;9.90;;
29854;SDS011;16733;48.738;9.106;2022-12-10T14:08:05;23.48;;;9.98;;
29854;SDS011;16733;48.738;9.106;2022-12-10T14:10:34;22.08;;;9.85;;
29854;SDS011;16733;48.738;9.106;2022-12-10T14:13:02;21.27;;;9.65;;
29854;SDS011;16733;48.738;9.106;2022-12-10T14:15:29;22.05;;;10.10;;
29854;SDS011;16733;48.738;9.106;2022-12-10T14:17:59;22.75;;;9.93;;
29854;SDS011;16733;48.738;9.106;2022-12-10T14:20:28;17.83;;;9.35;;
29854;SDS011;16733;48.738;9.106;2022-12-10T14:22:56;24.83;;;10.55;;
29854;SDS011;16733;48.738;9.106;2022-12-10T14:25:46;19.92;;;10.25;;
29854;SDS011;16733;48.738;9.106;2022-12-10T14:28:13;23.17;;;8.77;;
29854;SDS011;16733;48.738;9.106;2022-12-10T14:30:47;20.73;;;9.63;;
29854;SDS011;16733;48.738;9.106;2022-12-10T14:33:18;19.63;;;8.82;;
29854;SDS011;16733;48.738;9.106;2022-12-10T14:35:47;19.15;;;9.13;;
29854;SDS011;16733;48.738;9.106;2022-12-10T14:38:19;25.25;;;9.38;;
29854;SDS011;16733;48.738;9.106;2022-12-10T14:40:52;16.02;;;8.00;;
29854;SDS011;16733;48.738;9.106;2022-12-10T14:43:23;19.35;;;9.25;;
29854;SDS011;16733;48.738;9.106;2022-12-10T14:45:57;16.40;;;8.27;;
29854;SDS011;16733;48.738;9.106;2022-12-10T14:48:25;20.80;;;8.32;;
29854;SDS011;16733;48.738;9.106;2022-12-10T14:50:51;21.63;;;8.65;;
29854;SDS011;16733;48.738;9.106;2022-12-10T14:53:18;21.90;;;8.50;;
29854;SDS011;16733;48.738;9.106;2022-12-10T14:55:47;17.50;;;8.75;;
29854;SDS011;16733;48.738;9.106;2022-12-10T14:58:38;18.60;;;9.15;;
29854;SDS011;16733;48.738;9.106;2022-12-10T15:01:28;17.67;;;8.43;;
29854;SDS011;16733;48.738;9.106;2022-12-10T15:03:56;21.33;;;9.20;;
29854;SDS011;16733;48.738;9.106;2022-12-10T15:06:24;19.58;;;8.85;;
29854;SDS011;16733;48.738;9.106;2022-12-10T15:08:52;18.95;;;8.23;;
29854;SDS011;16733;48.738;9.106;2022-12-10T15:11:21;17.55;;;8.32;;
29854;SDS011;16733;48.738;9.106;2022-12-10T15:13:49;19.50;;;8.88;;
29854;SDS011;16733;48.738;9.106;2022-12-10T15:16:41;18.42;;;8.68;;
29854;SDS011;16733;48.738;9.106;2022-12-10T15:19:07;19.35;;;8.57;;
29854;SDS011;16733;48.738;9.106;2022-12-10T15:21:47;17.80;;;8.20;;
29854;SDS011;16733;48.738;9.106;2022-12-10T15:24:27;18.05;;;8.63;;
29854;SDS011;16733;48.738;9.106;2022-12-10T15:27:01;20.60;;;8.93;;
29854;SDS011;16733;48.738;9.106;2022-12-10T15:31:55;17.50;;;8.70;;
29854;SDS011;16733;48.738;9.106;2022-12-10T15:34:40;22.83;;;10.55;;
29854;SDS011;16733;48.738;9.106;2022-12-10T15:37:15;21.08;;;9.00;;
29854;SDS011;16733;48.738;9.106;2022-12-10T15:39:45;31.27;;;12.50;;
29854;SDS011;16733;48.738;9.106;2022-12-10T15:42:40;31.88;;;12.77;;
29854;SDS011;16733;48.738;9.106;2022-12-10T15:45:25;31.27;;;12.73;;
29854;SDS011;16733;48.738;9.106;2022-12-10T15:47:57;24.05;;;9.88;;
29854;SDS011;16733;48.738;9.106;2022-12-10T15:50:23;25.92;;;11.32;;
29854;SDS011;16733;48.738;9.106;2022-12-10T15:52:50;29.83;;;11.57;;
29854;SDS011;16733;48.738;9.106;2022-12-10T15:55:16;27.25;;;12.27;;
29854;SDS011;16733;48.738;9.106;2022-12-10T15:57:42;28.77;;;12.60;;
29854;SDS011;16733;48.738;9.106;2022-12-10T16:00:15;31.27;;;11.48;;
29854;SDS011;16733;48.738;9.106;2022-12-10T16:05:15;20.98;;;9.10;;
29854;SDS011;16733;48.738;9.106;2022-12-10T16:07:47;23.58;;;10.15;;
29854;SDS011;16733;48.738;9.106;2022-12-10T16:10:14;19.58;;;8.98;;
29854;SDS011;16733;48.738;9.106;2022-12-10T16:12:41;20.70;;;9.63;;
29854;SDS011;16733;48.738;9.106;2022-12-10T16:15:11;19.42;;;8.95;;
29854;SDS011;16733;48.738;9.106;2022-12-10T16:17:42;23.10;;;8.93;;
29854;SDS011;16733;48.738;9.106;2022-12-10T16:22:53;15.50;;;7.30;;
29854;SDS011;16733;48.738;9.106;2022-12-10T16:25:20;18.02;;;8.25;;
29854;SDS011;16733;48.738;9.106;2022-12-10T16:27:46;16.67;;;8.55;;
29854;SDS011;16733;48.738;9.106;2022-12-10T16:30:26;20.52;;;8.63;;
29854;SDS011;16733;48.738;9.106;2022-12-10T16:32:57;18.65;;;8.45;;
29854;SDS011;16733;48.738;9.106;2022-12-10T16:35:23;25.25;;;9.57;;
29854;SDS011;16733;48.738;9.106;2022-12-10T16:37:49;18.65;;;8.73;;
29854;SDS011;16733;48.738;9.106;2022-12-10T16:40:19;19.10;;;8.60;;
29854;SDS011;16733;48.738;9.106;2022-12-10T16:42:46;20.17;;;8.68;;
29854;SDS011;16733;48.738;9.106;2022-12-10T16:45:17;19.23;;;9.10;;
29854;SDS011;16733;48.738;9.106;2022-12-10T16:48:04;18.00;;;8.30;;
29854;SDS011;16733;48.738;9.106;2022-12-10T16:50:30;17.70;;;9.23;;
29854;SDS011;16733;48.738;9.106;2022-12-10T16:52:56;19.08;;;7.72;;